Aviation Digital Data Service (ADDS)

Output produced by METARs form (1008 UTC 29 July 2016)
found at http://www.aviationweather.gov/adds/metars/
 
KCMI 290753Z 2908/3006 VRB03KT 3/4SM BR BKN025 
     TEMPO 2908/2912 1/4SM FG 
     FM291500 28004KT P6SM BKN035 
     PROB30 2917/2923 4SM TSRA OVC025CB